sensor_id;sensor_type;location;lat;lon;timestamp;pressure;altitude;pressure_sealevel;temperature;humidity
15272;BME280;7737;51.578;7.268;2023-12-14T00:01:11;100263.13;;;7.68;100.00
15272;BME280;7737;51.578;7.268;2023-12-14T00:03:38;100268.53;;;7.65;100.00
15272;BME280;7737;51.578;7.268;2023-12-14T00:06:06;100274.66;;;7.67;100.00
15272;BME280;7737;51.578;7.268;2023-12-14T00:08:35;100282.16;;;7.76;100.00
15272;BME280;7737;51.578;7.268;2023-12-14T00:11:03;100286.44;;;7.79;100.00
15272;BME280;7737;51.578;7.268;2023-12-14T00:13:30;100292.44;;;7.64;100.00
15272;BME280;7737;51.578;7.268;2023-12-14T00:15:56;100297.13;;;7.57;100.00
15272;BME280;7737;51.578;7.268;2023-12-14T00:18:23;100301.34;;;7.61;100.00
15272;BME280;7737;51.578;7.268;2023-12-14T00:20:49;100295.81;;;7.47;100.00
15272;BME280;7737;51.578;7.268;2023-12-14T00:23:16;100300.84;;;7.53;100.00
15272;BME280;7737;51.578;7.268;2023-12-14T00:25:44;100310.22;;;7.40;100.00
15272;BME280;7737;51.578;7.268;2023-12-14T00:28:10;100296.56;;;7.30;100.00
15272;BME280;7737;51.578;7.268;2023-12-14T00:30:37;100315.13;;;7.49;100.00
15272;BME280;7737;51.578;7.268;2023-12-14T00:33:03;100309.44;;;7.58;100.00
15272;BME280;7737;51.578;7.268;2023-12-14T00:35:30;100321.19;;;7.31;100.00
15272;BME280;7737;51.578;7.268;2023-12-14T00:37:56;100323.97;;;7.48;100.00
15272;BME280;7737;51.578;7.268;2023-12-14T00:40:23;100326.88;;;7.22;100.00
15272;BME280;7737;51.578;7.268;2023-12-14T00:42:51;100330.56;;;7.18;100.00
15272;BME280;7737;51.578;7.268;2023-12-14T00:45:18;100337.66;;;7.38;100.00
15272;BME280;7737;51.578;7.268;2023-12-14T00:47:44;100345.81;;;7.33;100.00
15272;BME280;7737;51.578;7.268;2023-12-14T00:50:11;100342.41;;;7.29;100.00
15272;BME280;7737;51.578;7.268;2023-12-14T00:52:37;100346.06;;;7.27;100.00
15272;BME280;7737;51.578;7.268;2023-12-14T00:55:05;100355.84;;;7.25;100.00
15272;BME280;7737;51.578;7.268;2023-12-14T00:57:31;100352.97;;;7.09;100.00
15272;BME280;7737;51.578;7.268;2023-12-14T00:59:59;100367.44;;;7.21;100.00
15272;BME280;7737;51.578;7.268;2023-12-14T01:02:25;100372.72;;;7.21;100.00
15272;BME280;7737;51.578;7.268;2023-12-14T01:04:52;100377.78;;;7.05;100.00
15272;BME280;7737;51.578;7.268;2023-12-14T01:07:18;100382.47;;;6.99;100.00
15272;BME280;7737;51.578;7.268;2023-12-14T01:09:45;100382.81;;;6.90;100.00
15272;BME280;7737;51.578;7.268;2023-12-14T01:12:11;100393.16;;;6.96;100.00
15272;BME280;7737;51.578;7.268;2023-12-14T01:14:38;100403.72;;;6.96;100.00
15272;BME280;7737;51.578;7.268;2023-12-14T01:17:06;100406.25;;;6.99;100.00
15272;BME280;7737;51.578;7.268;2023-12-14T01:19:32;100405.81;;;7.09;100.00
15272;BME280;7737;51.578;7.268;2023-12-14T01:21:59;100413.91;;;7.05;100.00
15272;BME280;7737;51.578;7.268;2023-12-14T01:24:25;100417.75;;;7.19;100.00
15272;BME280;7737;51.578;7.268;2023-12-14T01:26:52;100422.94;;;7.21;100.00
15272;BME280;7737;51.578;7.268;2023-12-14T01:29:18;100424.75;;;6.99;100.00
15272;BME280;7737;51.578;7.268;2023-12-14T01:31:45;100423.56;;;7.06;100.00
15272;BME280;7737;51.578;7.268;2023-12-14T01:34:12;100434.69;;;7.14;100.00
15272;BME280;7737;51.578;7.268;2023-12-14T01:36:41;100438.13;;;6.94;100.00
15272;BME280;7737;51.578;7.268;2023-12-14T01:39:07;100438.19;;;6.93;100.00
15272;BME280;7737;51.578;7.268;2023-12-14T01:41:34;100448.09;;;6.88;100.00
15272;BME280;7737;51.578;7.268;2023-12-14T01:44:01;100455.06;;;6.89;100.00
15272;BME280;7737;51.578;7.268;2023-12-14T01:46:27;100459.09;;;6.99;100.00
15272;BME280;7737;51.578;7.268;2023-12-14T01:48:54;100461.59;;;7.02;100.00
15272;BME280;7737;51.578;7.268;2023-12-14T01:51:22;100462.31;;;7.07;100.00
15272;BME280;7737;51.578;7.268;2023-12-14T01:53:49;100464.66;;;6.91;100.00
15272;BME280;7737;51.578;7.268;2023-12-14T01:56:15;100476.47;;;6.83;100.00
15272;BME280;7737;51.578;7.268;2023-12-14T01:58:41;100472.66;;;6.90;100.00
15272;BME280;7737;51.578;7.268;2023-12-14T02:01:14;100485.78;;;6.91;100.00
15272;BME280;7737;51.578;7.268;2023-12-14T02:03:45;100497.41;;;6.87;100.00
15272;BME280;7737;51.578;7.268;2023-12-14T02:06:11;100503.31;;;6.70;100.00
15272;BME280;7737;51.578;7.268;2023-12-14T02:08:39;100505.66;;;6.78;100.00
15272;BME280;7737;51.578;7.268;2023-12-14T02:11:06;100514.06;;;6.89;100.00
15272;BME280;7737;51.578;7.268;2023-12-14T02:13:33;100520.44;;;6.84;100.00
15272;BME280;7737;51.578;7.268;2023-12-14T02:16:00;100528.38;;;6.84;100.00
15272;BME280;7737;51.578;7.268;2023-12-14T02:18:26;100527.69;;;6.79;100.00
15272;BME280;7737;51.578;7.268;2023-12-14T02:20:52;100531.47;;;6.71;100.00
15272;BME280;7737;51.578;7.268;2023-12-14T02:23:20;100546.97;;;6.81;100.00
15272;BME280;7737;51.578;7.268;2023-12-14T02:25:47;100547.44;;;6.68;100.00
15272;BME280;7737;51.578;7.268;2023-12-14T02:28:13;100552.56;;;6.48;100.00
15272;BME280;7737;51.578;7.268;2023-12-14T02:30:40;100551.13;;;6.64;100.00
15272;BME280;7737;51.578;7.268;2023-12-14T02:33:06;100554.75;;;6.60;100.00
15272;BME280;7737;51.578;7.268;2023-12-14T02:35:32;100555.28;;;6.70;100.00
15272;BME280;7737;51.578;7.268;2023-12-14T02:37:59;100560.84;;;6.62;100.00
15272;BME280;7737;51.578;7.268;2023-12-14T02:40:27;100558.75;;;6.47;100.00
15272;BME280;7737;51.578;7.268;2023-12-14T02:42:53;100565.53;;;6.54;100.00
15272;BME280;7737;51.578;7.268;2023-12-14T02:45:19;100567.06;;;6.61;100.00
15272;BME280;7737;51.578;7.268;2023-12-14T02:47:46;100561.69;;;6.64;100.00
15272;BME280;7737;51.578;7.268;2023-12-14T02:50:15;100571.28;;;6.67;100.00
15272;BME280;7737;51.578;7.268;2023-12-14T02:52:41;100571.47;;;6.61;100.00
15272;BME280;7737;51.578;7.268;2023-12-14T02:55:08;100574.41;;;6.53;100.00
15272;BME280;7737;51.578;7.268;2023-12-14T02:57:36;100569.91;;;6.80;100.00
15272;BME280;7737;51.578;7.268;2023-12-14T03:00:03;100578.59;;;6.59;100.00
15272;BME280;7737;51.578;7.268;2023-12-14T03:02:29;100577.53;;;6.64;100.00
15272;BME280;7737;51.578;7.268;2023-12-14T03:04:55;100577.84;;;6.55;100.00
15272;BME280;7737;51.578;7.268;2023-12-14T03:07:22;100578.63;;;6.57;100.00
15272;BME280;7737;51.578;7.268;2023-12-14T03:09:48;100590.59;;;6.67;100.00
15272;BME280;7737;51.578;7.268;2023-12-14T03:12:15;100588.88;;;6.66;100.00
15272;BME280;7737;51.578;7.268;2023-12-14T03:14:43;100598.75;;;6.61;100.00
15272;BME280;7737;51.578;7.268;2023-12-14T03:17:09;100596.00;;;6.64;100.00
15272;BME280;7737;51.578;7.268;2023-12-14T03:19:38;100608.63;;;6.56;100.00
15272;BME280;7737;51.578;7.268;2023-12-14T03:22:05;100606.41;;;6.69;100.00
15272;BME280;7737;51.578;7.268;2023-12-14T03:24:32;100620.28;;;6.49;100.00
15272;BME280;7737;51.578;7.268;2023-12-14T03:26:58;100628.13;;;6.52;100.00
15272;BME280;7737;51.578;7.268;2023-12-14T03:29:26;100619.78;;;6.38;100.00
15272;BME280;7737;51.578;7.268;2023-12-14T03:31:53;100622.72;;;6.55;100.00
15272;BME280;7737;51.578;7.268;2023-12-14T03:34:20;100637.88;;;6.50;100.00
15272;BME280;7737;51.578;7.268;2023-12-14T03:36:46;100634.81;;;6.36;100.00
15272;BME280;7737;51.578;7.268;2023-12-14T03:39:13;100637.97;;;6.47;100.00
15272;BME280;7737;51.578;7.268;2023-12-14T03:41:41;100647.75;;;6.44;100.00
15272;BME280;7737;51.578;7.268;2023-12-14T03:44:08;100647.72;;;6.45;100.00
15272;BME280;7737;51.578;7.268;2023-12-14T03:46:34;100652.84;;;6.50;100.00
15272;BME280;7737;51.578;7.268;2023-12-14T03:49:02;100653.81;;;6.47;100.00
15272;BME280;7737;51.578;7.268;2023-12-14T03:51:29;100659.91;;;6.49;100.00
15272;BME280;7737;51.578;7.268;2023-12-14T03:53:55;100661.84;;;6.44;100.00
15272;BME280;7737;51.578;7.268;2023-12-14T03:56:22;100673.53;;;6.37;100.00
15272;BME280;7737;51.578;7.268;2023-12-14T03:58:49;100680.75;;;6.57;100.00
15272;BME280;7737;51.578;7.268;2023-12-14T04:01:16;100688.06;;;6.49;100.00
15272;BME280;7737;51.578;7.268;2023-12-14T04:03:43;100687.81;;;6.30;100.00
15272;BME280;7737;51.578;7.268;2023-12-14T04:06:12;100688.34;;;6.41;100.00
15272;BME280;7737;51.578;7.268;2023-12-14T04:08:38;100697.53;;;6.30;100.00
15272;BME280;7737;51.578;7.268;2023-12-14T04:11:05;100699.81;;;6.40;100.00
15272;BME280;7737;51.578;7.268;2023-12-14T04:13:32;100702.47;;;6.40;100.00
15272;BME280;7737;51.578;7.268;2023-12-14T04:15:58;100703.66;;;6.30;100.00
15272;BME280;7737;51.578;7.268;2023-12-14T04:18:25;100712.81;;;6.46;100.00
15272;BME280;7737;51.578;7.268;2023-12-14T04:20:51;100706.91;;;6.38;100.00
15272;BME280;7737;51.578;7.268;2023-12-14T04:23:19;100716.66;;;6.36;100.00
15272;BME280;7737;51.578;7.268;2023-12-14T04:25:45;100718.56;;;6.33;100.00
15272;BME280;7737;51.578;7.268;2023-12-14T04:28:12;100723.72;;;6.36;100.00
15272;BME280;7737;51.578;7.268;2023-12-14T04:30:38;100722.28;;;6.26;100.00
15272;BME280;7737;51.578;7.268;2023-12-14T04:33:05;100738.75;;;6.34;100.00
15272;BME280;7737;51.578;7.268;2023-12-14T04:35:31;100742.16;;;6.09;100.00
15272;BME280;7737;51.578;7.268;2023-12-14T04:38:01;100753.31;;;6.19;100.00
15272;BME280;7737;51.578;7.268;2023-12-14T04:40:29;100740.72;;;6.27;100.00
15272;BME280;7737;51.578;7.268;2023-12-14T04:42:56;100746.28;;;6.18;100.00
15272;BME280;7737;51.578;7.268;2023-12-14T04:45:22;100756.56;;;6.27;100.00
15272;BME280;7737;51.578;7.268;2023-12-14T04:47:48;100750.09;;;6.37;100.00
15272;BME280;7737;51.578;7.268;2023-12-14T04:50:15;100753.59;;;6.38;100.00
15272;BME280;7737;51.578;7.268;2023-12-14T04:52:41;100761.53;;;6.36;100.00
15272;BME280;7737;51.578;7.268;2023-12-14T04:55:09;100767.22;;;6.24;100.00
15272;BME280;7737;51.578;7.268;2023-12-14T04:57:36;100769.13;;;6.19;100.00
15272;BME280;7737;51.578;7.268;2023-12-14T05:00:04;100773.41;;;6.23;100.00
15272;BME280;7737;51.578;7.268;2023-12-14T05:02:32;100783.47;;;6.38;100.00
15272;BME280;7737;51.578;7.268;2023-12-14T05:04:58;100775.06;;;6.27;100.00
15272;BME280;7737;51.578;7.268;2023-12-14T05:07:25;100778.50;;;6.00;100.00
15272;BME280;7737;51.578;7.268;2023-12-14T05:09:51;100782.56;;;6.11;100.00
15272;BME280;7737;51.578;7.268;2023-12-14T05:12:18;100787.47;;;6.24;100.00
15272;BME280;7737;51.578;7.268;2023-12-14T05:14:44;100791.38;;;6.38;100.00
15272;BME280;7737;51.578;7.268;2023-12-14T05:17:11;100791.16;;;6.18;100.00
15272;BME280;7737;51.578;7.268;2023-12-14T05:19:37;100787.53;;;6.22;100.00
15272;BME280;7737;51.578;7.268;2023-12-14T05:22:04;100793.78;;;6.18;100.00
15272;BME280;7737;51.578;7.268;2023-12-14T05:24:30;100794.66;;;6.19;100.00
15272;BME280;7737;51.578;7.268;2023-12-14T05:26:57;100788.91;;;6.06;100.00
15272;BME280;7737;51.578;7.268;2023-12-14T05:29:23;100803.88;;;6.04;100.00
15272;BME280;7737;51.578;7.268;2023-12-14T05:31:51;100814.81;;;6.21;100.00
15272;BME280;7737;51.578;7.268;2023-12-14T05:34:17;100817.38;;;6.24;100.00
15272;BME280;7737;51.578;7.268;2023-12-14T05:36:44;100815.84;;;5.86;100.00
15272;BME280;7737;51.578;7.268;2023-12-14T05:39:10;100821.19;;;5.85;100.00
15272;BME280;7737;51.578;7.268;2023-12-14T05:41:39;100827.28;;;5.87;100.00
15272;BME280;7737;51.578;7.268;2023-12-14T05:44:06;100826.00;;;6.00;100.00
15272;BME280;7737;51.578;7.268;2023-12-14T05:46:32;100831.22;;;6.01;100.00
15272;BME280;7737;51.578;7.268;2023-12-14T05:49:00;100830.50;;;5.96;100.00
15272;BME280;7737;51.578;7.268;2023-12-14T05:51:28;100841.13;;;5.95;100.00
15272;BME280;7737;51.578;7.268;2023-12-14T05:53:54;100842.09;;;5.91;100.00
15272;BME280;7737;51.578;7.268;2023-12-14T05:56:21;100846.53;;;5.90;100.00
15272;BME280;7737;51.578;7.268;2023-12-14T05:58:47;100851.81;;;5.90;100.00
15272;BME280;7737;51.578;7.268;2023-12-14T06:01:16;100857.66;;;6.00;100.00
15272;BME280;7737;51.578;7.268;2023-12-14T06:03:43;100858.97;;;6.16;100.00
15272;BME280;7737;51.578;7.268;2023-12-14T06:06:10;100871.03;;;5.94;100.00
15272;BME280;7737;51.578;7.268;2023-12-14T06:08:38;100872.91;;;5.90;100.00
15272;BME280;7737;51.578;7.268;2023-12-14T06:11:05;100873.75;;;5.91;100.00
15272;BME280;7737;51.578;7.268;2023-12-14T06:13:31;100873.41;;;6.03;100.00
15272;BME280;7737;51.578;7.268;2023-12-14T06:15:58;100876.22;;;5.97;100.00
15272;BME280;7737;51.578;7.268;2023-12-14T06:18:25;100878.63;;;6.06;100.00
15272;BME280;7737;51.578;7.268;2023-12-14T06:20:51;100889.06;;;6.09;100.00
15272;BME280;7737;51.578;7.268;2023-12-14T06:23:19;100891.19;;;5.96;100.00
15272;BME280;7737;51.578;7.268;2023-12-14T06:25:45;100909.75;;;6.24;100.00
15272;BME280;7737;51.578;7.268;2023-12-14T06:28:12;100916.16;;;6.16;100.00
15272;BME280;7737;51.578;7.268;2023-12-14T06:30:38;100913.66;;;6.11;100.00
15272;BME280;7737;51.578;7.268;2023-12-14T06:33:05;100921.25;;;5.91;100.00
15272;BME280;7737;51.578;7.268;2023-12-14T06:35:31;100929.28;;;5.86;100.00
15272;BME280;7737;51.578;7.268;2023-12-14T06:37:58;100924.22;;;6.11;100.00
15272;BME280;7737;51.578;7.268;2023-12-14T06:40:26;100929.66;;;6.05;100.00
15272;BME280;7737;51.578;7.268;2023-12-14T06:42:52;100934.50;;;6.20;100.00
15272;BME280;7737;51.578;7.268;2023-12-14T06:45:19;100944.38;;;6.13;100.00
15272;BME280;7737;51.578;7.268;2023-12-14T06:47:45;100948.56;;;5.88;100.00
15272;BME280;7737;51.578;7.268;2023-12-14T06:50:12;100956.94;;;6.04;100.00
15272;BME280;7737;51.578;7.268;2023-12-14T06:52:39;100961.06;;;5.80;100.00
15272;BME280;7737;51.578;7.268;2023-12-14T06:55:06;100959.97;;;5.90;100.00
15272;BME280;7737;51.578;7.268;2023-12-14T06:57:34;100964.63;;;5.79;100.00
15272;BME280;7737;51.578;7.268;2023-12-14T07:00:01;100963.44;;;5.91;100.00
15272;BME280;7737;51.578;7.268;2023-12-14T07:02:27;100973.28;;;5.83;100.00
15272;BME280;7737;51.578;7.268;2023-12-14T07:04:54;100970.72;;;5.81;100.00
15272;BME280;7737;51.578;7.268;2023-12-14T07:07:20;100974.84;;;5.58;100.00
15272;BME280;7737;51.578;7.268;2023-12-14T07:09:47;100976.03;;;5.80;100.00
15272;BME280;7737;51.578;7.268;2023-12-14T07:12:13;100985.47;;;5.54;100.00
15272;BME280;7737;51.578;7.268;2023-12-14T07:14:41;100982.97;;;5.84;100.00
15272;BME280;7737;51.578;7.268;2023-12-14T07:17:08;100988.72;;;5.66;100.00
15272;BME280;7737;51.578;7.268;2023-12-14T07:19:34;100986.88;;;5.68;100.00
15272;BME280;7737;51.578;7.268;2023-12-14T07:22:01;100998.66;;;5.90;100.00
15272;BME280;7737;51.578;7.268;2023-12-14T07:24:27;101008.59;;;5.79;100.00
15272;BME280;7737;51.578;7.268;2023-12-14T07:26:54;101006.03;;;5.76;100.00
15272;BME280;7737;51.578;7.268;2023-12-14T07:29:20;101009.56;;;5.75;100.00
15272;BME280;7737;51.578;7.268;2023-12-14T07:31:48;101010.72;;;6.00;100.00
15272;BME280;7737;51.578;7.268;2023-12-14T07:34:14;101025.16;;;5.84;100.00
15272;BME280;7737;51.578;7.268;2023-12-14T07:36:41;101031.28;;;5.86;100.00
15272;BME280;7737;51.578;7.268;2023-12-14T07:39:07;101033.94;;;5.86;100.00
15272;BME280;7737;51.578;7.268;2023-12-14T07:41:34;101048.06;;;5.85;100.00
15272;BME280;7737;51.578;7.268;2023-12-14T07:44:01;101042.34;;;5.65;100.00
15272;BME280;7737;51.578;7.268;2023-12-14T07:46:28;101057.66;;;5.87;100.00
15272;BME280;7737;51.578;7.268;2023-12-14T07:48:56;101059.16;;;5.97;100.00
15272;BME280;7737;51.578;7.268;2023-12-14T07:51:22;101065.97;;;6.06;100.00
15272;BME280;7737;51.578;7.268;2023-12-14T07:53:49;101067.75;;;6.05;100.00
15272;BME280;7737;51.578;7.268;2023-12-14T07:56:16;101077.47;;;6.03;100.00
15272;BME280;7737;51.578;7.268;2023-12-14T07:58:42;101076.00;;;5.92;100.00
15272;BME280;7737;51.578;7.268;2023-12-14T08:01:08;101081.94;;;6.00;100.00
15272;BME280;7737;51.578;7.268;2023-12-14T08:03:35;101081.63;;;6.12;100.00
15272;BME280;7737;51.578;7.268;2023-12-14T08:06:03;101085.00;;;5.82;100.00
15272;BME280;7737;51.578;7.268;2023-12-14T08:08:30;101083.78;;;5.98;100.00
15272;BME280;7737;51.578;7.268;2023-12-14T08:10:56;101085.19;;;6.11;100.00
15272;BME280;7737;51.578;7.268;2023-12-14T08:13:22;101084.44;;;6.06;100.00
15272;BME280;7737;51.578;7.268;2023-12-14T08:15:49;101089.72;;;6.06;100.00
15272;BME280;7737;51.578;7.268;2023-12-14T08:18:16;101103.59;;;6.14;100.00
15272;BME280;7737;51.578;7.268;2023-12-14T08:20:42;101104.34;;;6.19;100.00
15272;BME280;7737;51.578;7.268;2023-12-14T08:23:10;101103.00;;;6.01;100.00
15272;BME280;7737;51.578;7.268;2023-12-14T08:25:36;101109.50;;;6.24;100.00
15272;BME280;7737;51.578;7.268;2023-12-14T08:28:03;101118.06;;;5.98;100.00
15272;BME280;7737;51.578;7.268;2023-12-14T08:30:30;101121.22;;;6.12;100.00
15272;BME280;7737;51.578;7.268;2023-12-14T08:32:56;101126.94;;;5.95;100.00
15272;BME280;7737;51.578;7.268;2023-12-14T08:35:23;101139.94;;;6.01;100.00
15272;BME280;7737;51.578;7.268;2023-12-14T08:37:49;101143.50;;;6.00;100.00
15272;BME280;7737;51.578;7.268;2023-12-14T08:40:17;101144.59;;;5.92;100.00
15272;BME280;7737;51.578;7.268;2023-12-14T08:42:43;101152.81;;;6.15;100.00
15272;BME280;7737;51.578;7.268;2023-12-14T08:45:10;101155.44;;;6.17;100.00
15272;BME280;7737;51.578;7.268;2023-12-14T08:47:37;101153.75;;;6.12;100.00
15272;BME280;7737;51.578;7.268;2023-12-14T08:50:05;101165.44;;;6.02;100.00
15272;BME280;7737;51.578;7.268;2023-12-14T08:52:33;101168.97;;;6.03;100.00
15272;BME280;7737;51.578;7.268;2023-12-14T08:54:59;101179.44;;;6.06;100.00
15272;BME280;7737;51.578;7.268;2023-12-14T08:57:28;101183.28;;;5.93;100.00
15272;BME280;7737;51.578;7.268;2023-12-14T08:59:54;101190.34;;;5.91;100.00
15272;BME280;7737;51.578;7.268;2023-12-14T09:02:21;101193.53;;;6.05;100.00
15272;BME280;7737;51.578;7.268;2023-12-14T09:04:47;101197.94;;;6.04;100.00
15272;BME280;7737;51.578;7.268;2023-12-14T09:07:14;101200.63;;;6.03;100.00
15272;BME280;7737;51.578;7.268;2023-12-14T09:09:40;101207.63;;;6.04;100.00
15272;BME280;7737;51.578;7.268;2023-12-14T09:12:07;101214.16;;;5.88;100.00
15272;BME280;7737;51.578;7.268;2023-12-14T09:14:35;101214.72;;;6.02;100.00
15272;BME280;7737;51.578;7.268;2023-12-14T09:17:02;101219.09;;;6.03;100.00
15272;BME280;7737;51.578;7.268;2023-12-14T09:19:29;101223.09;;;5.81;100.00
15272;BME280;7737;51.578;7.268;2023-12-14T09:21:56;101223.88;;;5.86;100.00
15272;BME280;7737;51.578;7.268;2023-12-14T09:24:23;101226.00;;;5.69;100.00
15272;BME280;7737;51.578;7.268;2023-12-14T09:26:49;101227.34;;;5.88;100.00
15272;BME280;7737;51.578;7.268;2023-12-14T09:29:16;101223.47;;;6.04;100.00
15272;BME280;7737;51.578;7.268;2023-12-14T09:31:45;101227.72;;;6.09;100.00
15272;BME280;7737;51.578;7.268;2023-12-14T09:34:12;101233.53;;;6.25;100.00
15272;BME280;7737;51.578;7.268;2023-12-14T09:36:39;101226.84;;;6.09;100.00
15272;BME280;7737;51.578;7.268;2023-12-14T09:39:06;101229.19;;;6.23;100.00
15272;BME280;7737;51.578;7.268;2023-12-14T09:41:35;101232.72;;;5.85;100.00
15272;BME280;7737;51.578;7.268;2023-12-14T09:44:02;101241.91;;;6.05;100.00
15272;BME280;7737;51.578;7.268;2023-12-14T09:46:29;101244.50;;;6.07;100.00
15272;BME280;7737;51.578;7.268;2023-12-14T09:48:57;101237.56;;;6.03;100.00
15272;BME280;7737;51.578;7.268;2023-12-14T09:51:26;101235.47;;;6.17;100.00
15272;BME280;7737;51.578;7.268;2023-12-14T09:53:53;101241.72;;;6.13;100.00
15272;BME280;7737;51.578;7.268;2023-12-14T09:56:23;101242.63;;;6.12;100.00
15272;BME280;7737;51.578;7.268;2023-12-14T09:58:49;101246.38;;;6.02;100.00
15272;BME280;7737;51.578;7.268;2023-12-14T10:01:22;101251.41;;;6.14;100.00
15272;BME280;7737;51.578;7.268;2023-12-14T10:03:49;101254.56;;;6.28;100.00
15272;BME280;7737;51.578;7.268;2023-12-14T10:06:17;101263.50;;;6.23;100.00
15272;BME280;7737;51.578;7.268;2023-12-14T10:08:53;101272.06;;;5.94;100.00
15272;BME280;7737;51.578;7.268;2023-12-14T10:11:20;101278.81;;;6.07;100.00
15272;BME280;7737;51.578;7.268;2023-12-14T10:13:47;101285.59;;;6.19;100.00
15272;BME280;7737;51.578;7.268;2023-12-14T10:16:26;101280.72;;;6.39;100.00
15272;BME280;7737;51.578;7.268;2023-12-14T10:18:53;101282.34;;;6.44;100.00
15272;BME280;7737;51.578;7.268;2023-12-14T10:21:21;101292.94;;;6.06;100.00
15272;BME280;7737;51.578;7.268;2023-12-14T10:23:47;101292.28;;;6.33;100.00
15272;BME280;7737;51.578;7.268;2023-12-14T10:26:15;101296.56;;;6.00;100.00
15272;BME280;7737;51.578;7.268;2023-12-14T10:28:41;101298.41;;;5.97;100.00
15272;BME280;7737;51.578;7.268;2023-12-14T10:31:09;101304.44;;;6.03;100.00
15272;BME280;7737;51.578;7.268;2023-12-14T10:33:35;101312.59;;;5.91;100.00
15272;BME280;7737;51.578;7.268;2023-12-14T10:36:04;101307.97;;;5.57;100.00
15272;BME280;7737;51.578;7.268;2023-12-14T10:38:33;101310.19;;;5.78;100.00
15272;BME280;7737;51.578;7.268;2023-12-14T10:41:01;101322.59;;;5.73;100.00
15272;BME280;7737;51.578;7.268;2023-12-14T10:43:28;101332.22;;;5.77;100.00
15272;BME280;7737;51.578;7.268;2023-12-14T10:45:59;101332.31;;;5.71;100.00
15272;BME280;7737;51.578;7.268;2023-12-14T10:48:26;101326.78;;;5.84;100.00
15272;BME280;7737;51.578;7.268;2023-12-14T10:50:54;101338.78;;;6.00;100.00
15272;BME280;7737;51.578;7.268;2023-12-14T10:53:23;101335.84;;;5.71;100.00
15272;BME280;7737;51.578;7.268;2023-12-14T10:55:52;101344.28;;;5.90;100.00
15272;BME280;7737;51.578;7.268;2023-12-14T10:58:20;101338.56;;;6.09;100.00
15272;BME280;7737;51.578;7.268;2023-12-14T11:00:58;101341.16;;;6.12;100.00
15272;BME280;7737;51.578;7.268;2023-12-14T11:03:26;101338.72;;;6.03;100.00
15272;BME280;7737;51.578;7.268;2023-12-14T11:05:52;101342.38;;;5.96;100.00
15272;BME280;7737;51.578;7.268;2023-12-14T11:08:19;101345.00;;;5.98;100.00
15272;BME280;7737;51.578;7.268;2023-12-14T11:10:54;101347.66;;;5.98;100.00
15272;BME280;7737;51.578;7.268;2023-12-14T11:13:21;101342.44;;;5.93;100.00
15272;BME280;7737;51.578;7.268;2023-12-14T11:15:49;101351.47;;;5.82;100.00
15272;BME280;7737;51.578;7.268;2023-12-14T11:18:20;101348.47;;;6.00;100.00
15272;BME280;7737;51.578;7.268;2023-12-14T11:20:50;101353.41;;;6.15;100.00
15272;BME280;7737;51.578;7.268;2023-12-14T11:23:18;101360.78;;;6.01;100.00
15272;BME280;7737;51.578;7.268;2023-12-14T11:25:56;101373.75;;;6.11;100.00
15272;BME280;7737;51.578;7.268;2023-12-14T11:28:23;101372.16;;;6.03;100.00
15272;BME280;7737;51.578;7.268;2023-12-14T11:30:50;101371.13;;;6.10;100.00
15272;BME280;7737;51.578;7.268;2023-12-14T11:33:16;101381.09;;;5.96;100.00
15272;BME280;7737;51.578;7.268;2023-12-14T11:35:43;101378.84;;;5.75;100.00
15272;BME280;7737;51.578;7.268;2023-12-14T11:38:09;101374.66;;;6.09;100.00
15272;BME280;7737;51.578;7.268;2023-12-14T11:40:38;101386.97;;;6.10;100.00
15272;BME280;7737;51.578;7.268;2023-12-14T11:43:07;101394.56;;;5.81;100.00
15272;BME280;7737;51.578;7.268;2023-12-14T11:45:35;101401.69;;;5.76;100.00
15272;BME280;7737;51.578;7.268;2023-12-14T11:48:02;101396.06;;;5.95;100.00
15272;BME280;7737;51.578;7.268;2023-12-14T11:50:31;101408.72;;;5.77;100.00
15272;BME280;7737;51.578;7.268;2023-12-14T11:52:58;101412.59;;;5.58;100.00
15272;BME280;7737;51.578;7.268;2023-12-14T11:55:26;101404.19;;;5.85;100.00
15272;BME280;7737;51.578;7.268;2023-12-14T11:57:53;101410.69;;;5.66;100.00
15272;BME280;7737;51.578;7.268;2023-12-14T12:00:24;101412.13;;;5.82;100.00
15272;BME280;7737;51.578;7.268;2023-12-14T12:02:51;101409.44;;;5.83;100.00
15272;BME280;7737;51.578;7.268;2023-12-14T12:05:18;101400.19;;;6.08;100.00
15272;BME280;7737;51.578;7.268;2023-12-14T12:07:45;101398.34;;;6.13;100.00
15272;BME280;7737;51.578;7.268;2023-12-14T12:10:11;101395.50;;;6.23;100.00
15272;BME280;7737;51.578;7.268;2023-12-14T12:12:38;101394.25;;;6.39;100.00
15272;BME280;7737;51.578;7.268;2023-12-14T12:15:05;101400.75;;;6.24;100.00
15272;BME280;7737;51.578;7.268;2023-12-14T12:17:33;101392.13;;;6.16;100.00
15272;BME280;7737;51.578;7.268;2023-12-14T12:20:04;101396.09;;;5.94;100.00
15272;BME280;7737;51.578;7.268;2023-12-14T12:22:31;101401.81;;;6.16;100.00
15272;BME280;7737;51.578;7.268;2023-12-14T12:24:57;101397.84;;;6.38;100.00
15272;BME280;7737;51.578;7.268;2023-12-14T12:27:26;101393.59;;;6.29;100.00
15272;BME280;7737;51.578;7.268;2023-12-14T12:29:52;101406.16;;;6.18;100.00
15272;BME280;7737;51.578;7.268;2023-12-14T12:32:20;101399.84;;;6.25;100.00
15272;BME280;7737;51.578;7.268;2023-12-14T12:34:48;101400.66;;;6.29;100.00
15272;BME280;7737;51.578;7.268;2023-12-14T12:37:14;101408.47;;;6.33;100.00
15272;BME280;7737;51.578;7.268;2023-12-14T12:39:40;101407.19;;;6.52;100.00
15272;BME280;7737;51.578;7.268;2023-12-14T12:42:07;101407.16;;;6.54;100.00
15272;BME280;7737;51.578;7.268;2023-12-14T12:44:33;101415.00;;;6.57;100.00
15272;BME280;7737;51.578;7.268;2023-12-14T12:47:00;101417.69;;;6.55;100.00
15272;BME280;7737;51.578;7.268;2023-12-14T12:49:26;101422.16;;;6.52;100.00
15272;BME280;7737;51.578;7.268;2023-12-14T12:51:55;101424.06;;;6.45;100.00
15272;BME280;7737;51.578;7.268;2023-12-14T12:54:21;101424.00;;;6.48;100.00
15272;BME280;7737;51.578;7.268;2023-12-14T12:56:48;101423.16;;;6.46;100.00
15272;BME280;7737;51.578;7.268;2023-12-14T12:59:14;101428.03;;;6.25;100.00